Terminal Aerodrome Forecast
Issued by NWS

Home | Current Version | Previous Version | Text Only | Print | Product List | Glossary On
Versions: 1 2 3 4 5 6 7 8 9 10 11 12 13 14 15 16 17 18 19 20 21
000
FTUS41 KBGM 310200 AAA
TAFELM
TAF AMD
KELM 310205Z 3102/3124 19006KT P6SM BKN018
     FM310900 18002KT 3SM BR OVC015
     FM311400 22005KT P6SM OVC025
      TEMPO 3114/3118 4SM -SHRA OVC015=

USA.gov is the U.S. government's official web portal to all federal, state and local government web resources and services.